Time;durP1;ratioP1;P1;durP2;ratioP2;P2;SDS_P1;SDS_P2;PMS_P1;PMS_P2;Temp;Humidity;BMP_temperature;BMP_pressure;BME280_temperature;BME280_humidity;BME280_pressure;Samples;Min_cycle;Max_cycle;Signal;HPM_P1;HPM_P2
2022/03/15 00:00:27;;;;;;;25.37;16.60;;;9.60;99.90;;;;;;5052868;28;20243;-72
2022/03/15 00:02:52;;;;;;;23.93;16.10;;;9.60;99.90;;;;;;5054826;28;20199;-72
2022/03/15 00:05:19;;;;;;;22.80;15.27;;;9.60;99.90;;;;;;5054296;28;20203;-73
2022/03/15 00:07:45;;;;;;;24.17;15.87;;;9.60;99.90;;;;;;5052267;28;20700;-72
2022/03/15 00:10:12;;;;;;;24.33;15.20;;;9.60;99.90;;;;;;5053604;28;20210;-72
2022/03/15 00:12:38;;;;;;;22.77;14.87;;;9.60;99.90;;;;;;5053731;28;20219;-71
2022/03/15 00:15:08;;;;;;;24.93;16.13;;;9.50;99.90;;;;;;5054587;28;20188;-74
2022/03/15 00:17:35;;;;;;;26.90;16.87;;;9.50;99.90;;;;;;5053693;28;20298;-72
2022/03/15 00:20:00;;;;;;;28.83;15.93;;;9.50;99.90;;;;;;5045178;28;20218;-72
2022/03/15 00:22:26;;;;;;;23.97;15.53;;;9.50;99.90;;;;;;5053949;28;20207;-73
2022/03/15 00:24:51;;;;;;;25.50;16.57;;;9.50;99.90;;;;;;5054068;28;20208;-73
2022/03/15 00:27:18;;;;;;;24.10;14.33;;;9.50;99.90;;;;;;5052435;28;20207;-72
2022/03/15 00:29:46;;;;;;;22.77;14.70;;;9.50;99.90;;;;;;5052816;28;20175;-73
2022/03/15 00:32:17;;;;;;;23.17;15.20;;;9.40;99.90;;;;;;5053502;28;20207;-73
2022/03/15 00:34:43;;;;;;;26.97;16.07;;;9.40;99.90;;;;;;5053830;28;20216;-73
2022/03/15 00:37:09;;;;;;;23.43;15.53;;;9.40;99.90;;;;;;5053628;28;20204;-74
2022/03/15 00:39:34;;;;;;;26.17;15.57;;;9.40;99.90;;;;;;5059819;28;20227;-72
2022/03/15 00:42:00;;;;;;;22.00;14.17;;;9.40;99.90;;;;;;5054077;28;20276;-76
2022/03/15 00:44:25;;;;;;;26.43;14.43;;;9.30;99.90;;;;;;5051535;28;20223;-74
2022/03/15 00:46:52;;;;;;;24.10;14.63;;;9.30;99.90;;;;;;5040712;28;20779;-74
2022/03/15 00:49:18;;;;;;;23.73;14.67;;;9.30;99.90;;;;;;5043921;28;20200;-73
2022/03/15 00:51:44;;;;;;;23.07;14.80;;;9.30;99.90;;;;;;5061956;28;20217;-75
2022/03/15 00:54:09;;;;;;;26.07;15.60;;;9.30;99.90;;;;;;5061764;28;20172;-74
2022/03/15 00:56:35;;;;;;;26.97;14.83;;;9.30;99.90;;;;;;5056286;28;20203;-77
2022/03/15 00:59:01;;;;;;;24.60;15.17;;;9.30;99.90;;;;;;5053583;28;20214;-77
2022/03/15 01:01:27;;;;;;;26.63;15.90;;;9.30;99.90;;;;;;5051559;28;20216;-73
2022/03/15 01:03:52;;;;;;;25.17;15.13;;;9.30;99.90;;;;;;5053439;28;20722;-74
2022/03/15 01:06:18;;;;;;;24.53;15.13;;;9.30;99.90;;;;;;5052991;28;20175;-75
2022/03/15 01:08:43;;;;;;;23.80;15.43;;;9.20;99.90;;;;;;5051405;28;20175;-76
2022/03/15 01:11:09;;;;;;;24.17;14.60;;;9.20;99.90;;;;;;5053083;28;20208;-74
2022/03/15 01:13:34;;;;;;;22.47;14.40;;;9.20;99.90;;;;;;5034608;23;20747;-77
2022/03/15 01:16:00;;;;;;;24.50;14.93;;;9.10;99.90;;;;;;5040143;28;20693;-78
2022/03/15 01:18:25;;;;;;;27.40;14.80;;;9.00;99.90;;;;;;5032676;28;20707;-78
2022/03/15 01:20:51;;;;;;;24.67;15.93;;;9.00;99.90;;;;;;5032781;28;20581;-78
2022/03/15 01:23:17;;;;;;;24.10;14.63;;;8.90;99.90;;;;;;5033139;28;20219;-78
2022/03/15 01:25:43;;;;;;;27.40;15.43;;;8.80;99.90;;;;;;5031919;28;20307;-78
2022/03/15 01:28:09;;;;;;;23.23;14.90;;;8.80;99.90;;;;;;5040300;28;20298;-78
2022/03/15 01:30:35;;;;;;;24.43;15.47;;;8.80;99.90;;;;;;5033405;28;20307;-78
2022/03/15 01:33:01;;;;;;;26.63;16.67;;;8.80;99.90;;;;;;5032452;28;20665;-78
2022/03/15 01:35:26;;;;;;;25.90;15.27;;;8.80;99.90;;;;;;5031702;28;20224;-78
2022/03/15 01:37:52;;;;;;;28.60;16.43;;;8.80;99.90;;;;;;5032610;28;20296;-78
2022/03/15 01:40:17;;;;;;;24.20;15.27;;;8.70;99.90;;;;;;5032571;28;20231;-77
2022/03/15 01:42:43;;;;;;;26.07;15.80;;;8.70;99.90;;;;;;5032659;28;20223;-76
2022/03/15 01:45:10;;;;;;;25.73;16.00;;;8.70;99.90;;;;;;5032371;28;20177;-77
2022/03/15 01:47:35;;;;;;;25.43;15.67;;;8.70;99.90;;;;;;5032875;28;20258;-76
2022/03/15 01:50:02;;;;;;;24.63;15.30;;;8.60;99.90;;;;;;5042135;28;20215;-80
2022/03/15 01:52:27;;;;;;;26.23;16.30;;;8.60;99.90;;;;;;5057470;28;20207;-79
2022/03/15 01:54:53;;;;;;;27.53;16.13;;;8.50;99.90;;;;;;5054936;28;20204;-79
2022/03/15 01:57:18;;;;;;;22.90;15.07;;;8.50;99.90;;;;;;5043319;28;20187;-77
2022/03/15 01:59:44;;;;;;;25.47;15.73;;;8.50;99.90;;;;;;5044435;28;20200;-77
2022/03/15 02:02:10;;;;;;;28.90;16.67;;;8.60;99.90;;;;;;5047219;28;20218;-79
2022/03/15 02:04:36;;;;;;;24.13;15.73;;;8.70;99.90;;;;;;5048628;28;20295;-78
2022/03/15 02:07:07;;;;;;;26.30;15.90;;;8.70;99.90;;;;;;5050364;28;20227;-80
2022/03/15 02:09:33;;;;;;;26.23;15.97;;;8.70;99.90;;;;;;5053116;28;20228;-78
2022/03/15 02:11:59;;;;;;;26.17;15.47;;;8.80;99.90;;;;;;5055052;28;20187;-79
2022/03/15 02:14:25;;;;;;;27.93;15.53;;;8.80;99.90;;;;;;5071009;28;20233;-79
2022/03/15 02:16:51;;;;;;;25.70;15.83;;;8.90;99.90;;;;;;5077718;28;20215;-81
2022/03/15 02:19:17;;;;;;;24.87;14.70;;;8.80;99.90;;;;;;5074612;28;20208;-80
2022/03/15 02:21:42;;;;;;;24.83;16.03;;;8.80;99.90;;;;;;5074840;28;20209;-78
2022/03/15 02:24:08;;;;;;;27.17;15.07;;;8.80;99.90;;;;;;5057287;28;20269;-77
2022/03/15 02:26:33;;;;;;;27.10;17.00;;;8.80;99.90;;;;;;5054333;28;20207;-77
2022/03/15 02:28:59;;;;;;;24.63;14.80;;;8.70;99.90;;;;;;5048072;28;20208;-78
2022/03/15 02:31:25;;;;;;;27.00;15.93;;;8.80;99.90;;;;;;5052760;28;20219;-78
2022/03/15 02:33:51;;;;;;;32.50;16.97;;;8.70;99.90;;;;;;5052929;28;20588;-77
2022/03/15 02:36:17;;;;;;;24.60;15.87;;;8.70;99.90;;;;;;5051208;28;20683;-78
2022/03/15 02:38:43;;;;;;;25.40;15.30;;;8.70;99.90;;;;;;5052224;28;20172;-77
2022/03/15 02:41:09;;;;;;;24.67;15.47;;;8.70;99.90;;;;;;5051119;28;20246;-77
2022/03/15 02:43:34;;;;;;;29.40;16.53;;;8.70;99.90;;;;;;5052318;28;20298;-78
2022/03/15 02:46:00;;;;;;;28.83;15.70;;;8.70;99.90;;;;;;5052462;28;20290;-77
2022/03/15 02:48:25;;;;;;;24.40;15.80;;;8.70;99.90;;;;;;5050036;28;20183;-78
2022/03/15 02:50:51;;;;;;;31.67;16.40;;;8.70;99.90;;;;;;5051363;28;20672;-78
2022/03/15 02:53:17;;;;;;;26.67;16.10;;;8.70;99.90;;;;;;5051022;28;20211;-77
2022/03/15 02:55:43;;;;;;;26.90;16.00;;;8.70;99.90;;;;;;5050764;28;20648;-77
2022/03/15 02:58:09;;;;;;;26.30;16.07;;;8.60;99.90;;;;;;5051480;28;20588;-77
2022/03/15 03:00:35;;;;;;;27.83;16.77;;;8.60;99.90;;;;;;5052335;28;20227;-76
2022/03/15 03:03:02;;;;;;;28.90;16.03;;;8.60;99.90;;;;;;5053011;28;20199;-77
2022/03/15 03:05:27;;;;;;;27.23;16.70;;;8.60;99.90;;;;;;5052499;28;20590;-76
2022/03/15 03:07:53;;;;;;;28.73;17.47;;;8.70;99.90;;;;;;5052324;28;20295;-77
2022/03/15 03:10:18;;;;;;;26.00;16.60;;;8.70;99.90;;;;;;5051845;28;20303;-78
2022/03/15 03:12:45;;;;;;;31.83;18.23;;;8.60;99.90;;;;;;5055383;28;20235;-77
2022/03/15 03:15:12;;;;;;;29.27;17.53;;;8.50;99.90;;;;;;5055279;28;20237;-78
2022/03/15 03:17:41;;;;;;;33.60;18.00;;;8.40;99.90;;;;;;5052026;28;20172;-77
2022/03/15 03:20:11;;;;;;;27.60;16.93;;;8.30;99.90;;;;;;5051148;28;20304;-77
2022/03/15 03:22:38;;;;;;;32.00;18.50;;;8.30;99.90;;;;;;5051645;28;20203;-79
2022/03/15 03:25:05;;;;;;;28.80;18.80;;;8.20;99.90;;;;;;5053067;28;20200;-78
2022/03/15 03:27:30;;;;;;;29.73;18.77;;;8.20;99.90;;;;;;5055538;28;20203;-78
2022/03/15 03:29:58;;;;;;;26.53;16.93;;;8.20;99.90;;;;;;5056775;28;20239;-78
2022/03/15 03:32:27;;;;;;;31.50;18.93;;;8.10;99.90;;;;;;5059418;28;20215;-78
2022/03/15 03:34:57;;;;;;;29.60;18.53;;;8.10;99.90;;;;;;5059860;28;20212;-78
2022/03/15 03:37:24;;;;;;;35.73;20.37;;;8.10;99.90;;;;;;5060274;28;20272;-77
2022/03/15 03:39:51;;;;;;;30.87;18.43;;;8.00;99.90;;;;;;5048115;28;20239;-77
2022/03/15 03:42:17;;;;;;;32.83;19.00;;;8.00;99.90;;;;;;5061036;28;20179;-78
2022/03/15 03:44:43;;;;;;;32.50;19.97;;;8.00;99.90;;;;;;5059056;28;20241;-78
2022/03/15 03:47:09;;;;;;;34.33;19.63;;;7.90;99.90;;;;;;5055401;28;20646;-77
2022/03/15 03:49:35;;;;;;;37.77;20.00;;;8.00;99.90;;;;;;5053785;28;20207;-79
2022/03/15 03:52:01;;;;;;;33.63;19.70;;;8.00;99.90;;;;;;5054904;28;20700;-78
2022/03/15 03:54:27;;;;;;;36.67;20.50;;;7.90;99.90;;;;;;5054538;28;20333;-78
2022/03/15 03:56:52;;;;;;;33.10;19.80;;;7.90;99.90;;;;;;5055443;28;20373;-77
2022/03/15 03:59:18;;;;;;;36.70;20.60;;;7.80;99.90;;;;;;5053920;28;20207;-77
2022/03/15 04:01:44;;;;;;;29.57;19.03;;;7.80;99.90;;;;;;5054544;28;20210;-78
2022/03/15 04:04:10;;;;;;;34.17;19.93;;;7.80;99.90;;;;;;5054809;28;20208;-77
2022/03/15 04:06:38;;;;;;;32.77;19.07;;;7.80;99.90;;;;;;5053117;28;20211;-77
2022/03/15 04:09:04;;;;;;;30.47;19.17;;;7.80;99.90;;;;;;5056640;28;20184;-77
2022/03/15 04:11:31;;;;;;;29.83;18.80;;;7.70;99.90;;;;;;5052950;28;20208;-77
2022/03/15 04:13:59;;;;;;;34.67;20.47;;;7.60;99.90;;;;;;5054312;28;20225;-78
2022/03/15 04:16:25;;;;;;;30.93;18.70;;;7.60;99.90;;;;;;5055975;28;20226;-76
2022/03/15 04:18:51;;;;;;;34.67;19.80;;;7.50;99.90;;;;;;5053597;28;20297;-78
2022/03/15 04:21:17;;;;;;;29.07;19.20;;;7.60;99.90;;;;;;5053539;28;20239;-78
2022/03/15 04:23:42;;;;;;;31.87;19.00;;;7.60;99.90;;;;;;5053748;28;20196;-78
2022/03/15 04:26:08;;;;;;;37.30;20.10;;;7.60;99.90;;;;;;5052960;28;20573;-79
2022/03/15 04:28:33;;;;;;;32.47;19.07;;;7.60;99.90;;;;;;5052195;28;20211;-78
2022/03/15 04:30:59;;;;;;;32.70;20.07;;;7.40;99.90;;;;;;5054545;28;20291;-78
2022/03/15 04:33:24;;;;;;;33.03;19.17;;;7.40;99.90;;;;;;5054084;28;20191;-78
2022/03/15 04:35:50;;;;;;;30.60;18.80;;;7.40;99.90;;;;;;5053680;28;20199;-79
2022/03/15 04:38:15;;;;;;;32.80;19.80;;;7.40;99.90;;;;;;5053721;28;20211;-78
2022/03/15 04:40:41;;;;;;;32.43;19.23;;;7.40;99.90;;;;;;5053990;28;20228;-78
2022/03/15 04:43:06;;;;;;;31.10;18.63;;;7.40;99.90;;;;;;5053068;28;20265;-78
2022/03/15 04:45:32;;;;;;;34.20;20.33;;;7.40;99.90;;;;;;5054386;28;20211;-78
2022/03/15 04:47:58;;;;;;;32.40;19.43;;;7.30;99.90;;;;;;5052478;28;20188;-77
2022/03/15 04:50:24;;;;;;;33.27;19.67;;;7.20;99.90;;;;;;5053445;28;20586;-78
2022/03/15 04:52:50;;;;;;;30.20;19.40;;;7.20;99.90;;;;;;5052015;28;20226;-78
2022/03/15 04:55:15;;;;;;;30.27;18.60;;;7.20;99.90;;;;;;5053409;28;20215;-77
2022/03/15 04:57:42;;;;;;;32.37;20.50;;;7.20;99.90;;;;;;5052333;28;20235;-76
2022/03/15 05:00:09;;;;;;;33.90;21.17;;;7.20;99.90;;;;;;5053549;28;20203;-78
2022/03/15 05:02:36;;;;;;;32.20;20.20;;;7.10;99.90;;;;;;5053394;28;20211;-77
2022/03/15 05:05:03;;;;;;;38.17;20.60;;;7.10;99.90;;;;;;5053305;28;20290;-77
2022/03/15 05:07:28;;;;;;;35.63;20.90;;;7.10;99.90;;;;;;5051567;28;20212;-78
2022/03/15 05:12:38;;;;;;;34.60;19.93;;;7.00;99.90;;;;;;5052489;28;20241;-77
2022/03/15 05:15:04;;;;;;;34.70;20.93;;;7.10;99.90;;;;;;5053611;28;20258;-76
2022/03/15 05:17:30;;;;;;;37.70;19.67;;;7.10;99.90;;;;;;5052727;28;20210;-77
2022/03/15 05:19:57;;;;;;;35.43;20.53;;;7.10;99.90;;;;;;5052464;28;20218;-77
2022/03/15 05:22:23;;;;;;;36.80;20.60;;;7.10;99.90;;;;;;5052563;28;20222;-77
2022/03/15 05:24:48;;;;;;;34.73;20.33;;;7.20;99.90;;;;;;5052680;28;20211;-77
2022/03/15 05:27:15;;;;;;;31.77;19.60;;;7.20;99.90;;;;;;5053049;28;20175;-78
2022/03/15 05:29:41;;;;;;;36.23;21.20;;;7.20;99.90;;;;;;5052623;28;20571;-78
2022/03/15 05:32:07;;;;;;;34.67;20.37;;;7.20;99.90;;;;;;5052868;28;20216;-79
2022/03/15 05:34:32;;;;;;;33.73;19.87;;;7.20;99.90;;;;;;5051713;28;20215;-79
2022/03/15 05:36:58;;;;;;;32.47;19.83;;;7.20;99.90;;;;;;5053161;28;20215;-76
2022/03/15 05:39:24;;;;;;;34.03;20.63;;;7.30;99.90;;;;;;5049275;28;20215;-78
2022/03/15 05:41:49;;;;;;;33.37;20.87;;;7.30;99.90;;;;;;5053231;28;20584;-78
2022/03/15 05:44:14;;;;;;;33.73;19.73;;;7.30;99.90;;;;;;5052275;28;20297;-77
2022/03/15 05:46:40;;;;;;;34.73;19.33;;;7.30;99.90;;;;;;5052272;28;20299;-78
2022/03/15 05:49:05;;;;;;;34.57;19.60;;;7.40;99.90;;;;;;5050271;28;20218;-79
2022/03/15 05:51:31;;;;;;;33.30;19.07;;;7.70;99.90;;;;;;5052103;28;20219;-78
2022/03/15 05:53:56;;;;;;;36.03;19.83;;;7.80;99.90;;;;;;5052765;28;20214;-78
2022/03/15 05:56:23;;;;;;;30.67;18.90;;;7.90;99.90;;;;;;5058009;28;20214;-79
2022/03/15 05:58:48;;;;;;;30.07;18.60;;;7.90;99.90;;;;;;5054250;28;20234;-79
2022/03/15 06:01:16;;;;;;;32.30;18.30;;;7.80;99.90;;;;;;5072685;28;20250;-79
2022/03/15 06:03:42;;;;;;;29.43;18.67;;;7.80;99.90;;;;;;5054395;28;20218;-79
2022/03/15 06:06:07;;;;;;;32.97;20.33;;;7.90;99.90;;;;;;5054818;28;20626;-78
2022/03/15 06:08:33;;;;;;;26.93;17.47;;;8.00;99.90;;;;;;5071432;28;20215;-79
2022/03/15 06:11:00;;;;;;;28.13;17.93;;;8.10;99.90;;;;;;5072079;28;20587;-76
2022/03/15 06:13:26;;;;;;;30.97;19.43;;;8.10;99.90;;;;;;5053644;28;20234;-78
2022/03/15 06:15:51;;;;;;;32.37;18.17;;;8.30;99.90;;;;;;5053988;28;20211;-80
2022/03/15 06:18:16;;;;;;;29.77;18.77;;;8.70;99.90;;;;;;5053392;28;20193;-79
2022/03/15 06:20:42;;;;;;;29.10;17.23;;;9.00;99.90;;;;;;5072660;28;20249;-78
2022/03/15 06:23:08;;;;;;;31.17;16.77;;;9.30;99.90;;;;;;5054370;28;20272;-79
2022/03/15 06:25:34;;;;;;;27.00;17.40;;;9.40;99.90;;;;;;5052397;28;20218;-78
2022/03/15 06:28:00;;;;;;;28.30;16.63;;;9.70;99.90;;;;;;5071386;28;20202;-78
2022/03/15 06:30:26;;;;;;;29.80;17.43;;;10.00;99.90;;;;;;5054012;28;20187;-79
2022/03/15 06:32:51;;;;;;;29.63;17.47;;;10.30;99.90;;;;;;5054905;28;20213;-79
2022/03/15 06:35:19;;;;;;;26.07;16.80;;;10.70;99.90;;;;;;5071869;28;20214;-78
2022/03/15 06:37:46;;;;;;;27.13;16.97;;;11.10;99.90;;;;;;5071884;28;20264;-77
2022/03/15 06:40:14;;;;;;;29.17;16.90;;;12.00;99.90;;;;;;5071608;28;20249;-79
2022/03/15 06:42:40;;;;;;;26.40;16.53;;;12.70;99.90;;;;;;5072018;28;20252;-80
2022/03/15 06:45:07;;;;;;;23.07;16.03;;;13.50;99.90;;;;;;5073242;28;20282;-80
2022/03/15 06:47:34;;;;;;;21.77;14.90;;;14.10;99.90;;;;;;5054656;28;20215;-78
2022/03/15 06:50:00;;;;;;;23.30;15.60;;;14.60;99.90;;;;;;5071938;28;20215;-79
2022/03/15 06:52:25;;;;;;;24.50;15.55;;;14.40;99.90;;;;;;5055039;28;20274;-79
2022/03/15 06:54:51;;;;;;;24.80;15.98;;;15.00;99.90;;;;;;5074015;28;20711;-79
2022/03/15 06:57:16;;;;;;;24.60;16.40;;;15.30;99.90;;;;;;5054293;28;20175;-80
2022/03/15 06:59:42;;;;;;;22.33;14.75;;;15.80;99.90;;;;;;5054492;28;20221;-77
2022/03/15 07:02:07;;;;;;;23.10;16.55;;;15.90;99.90;;;;;;5075823;28;20274;-78
2022/03/15 07:04:33;;;;;;;24.60;16.08;;;15.90;99.90;;;;;;5076104;28;20293;-78
2022/03/15 07:06:58;;;;;;;21.63;15.60;;;16.40;99.90;;;;;;5075765;28;20211;-78
2022/03/15 07:09:24;;;;;;;24.98;16.92;;;16.60;99.90;;;;;;5075174;28;20197;-78
2022/03/15 07:11:50;;;;;;;25.70;16.83;;;17.00;99.90;;;;;;5055429;28;20607;-79
2022/03/15 07:14:16;;;;;;;22.15;16.55;;;17.00;99.90;;;;;;5078891;22;20651;-74
2022/03/15 07:16:41;;;;;;;23.65;18.00;;;17.00;99.90;;;;;;5064740;28;20737;-74
2022/03/15 07:19:07;;;;;;;24.83;18.17;;;16.90;99.90;;;;;;5065714;28;20203;-73
2022/03/15 07:21:32;;;;;;;24.13;17.63;;;17.20;99.90;;;;;;5065193;28;20671;-72
2022/03/15 07:23:59;;;;;;;26.00;17.42;;;16.80;99.90;;;;;;5067148;28;20195;-71
2022/03/15 07:26:24;;;;;;;25.27;17.17;;;16.20;99.90;;;;;;5073155;28;20634;-72
2022/03/15 07:28:50;;;;;;;25.63;17.88;;;16.70;99.90;;;;;;5073916;28;20206;-72
2022/03/15 07:31:15;;;;;;;25.75;17.55;;;15.80;99.90;;;;;;5074793;28;20214;-73
2022/03/15 07:33:41;;;;;;;22.27;16.58;;;15.40;99.90;;;;;;5060476;28;20218;-71
2022/03/15 07:36:07;;;;;;;24.50;16.63;;;15.30;99.90;;;;;;5043698;28;20185;-75
2022/03/15 07:38:32;;;;;;;32.05;19.38;;;15.60;99.90;;;;;;5059500;28;20219;-74
2022/03/15 07:41:01;;;;;;;24.27;17.20;;;15.40;99.90;;;;;;5070551;28;20223;-75
2022/03/15 07:43:29;;;;;;;23.63;17.13;;;15.20;99.90;;;;;;5070759;28;20729;-72
2022/03/15 07:45:55;;;;;;;24.50;18.25;;;15.50;99.90;;;;;;5074240;28;20280;-74
2022/03/15 07:48:20;;;;;;;28.40;18.42;;;15.80;99.90;;;;;;5072753;28;20282;-75
2022/03/15 07:50:47;;;;;;;30.48;19.50;;;16.20;99.90;;;;;;5072437;28;20206;-77
2022/03/15 07:53:12;;;;;;;26.85;18.88;;;16.60;99.90;;;;;;5068557;28;20239;-79
2022/03/15 07:55:38;;;;;;;24.30;17.92;;;17.00;99.90;;;;;;5071319;28;20239;-79
2022/03/15 07:58:04;;;;;;;26.98;18.92;;;17.20;99.90;;;;;;5079662;28;20207;-80
2022/03/15 08:00:31;;;;;;;26.55;18.40;;;17.20;99.90;;;;;;5076079;28;20202;-73
2022/03/15 08:02:56;;;;;;;30.23;19.17;;;17.50;99.90;;;;;;5074126;28;20647;-76
2022/03/15 08:05:22;;;;;;;26.70;18.92;;;17.70;99.90;;;;;;5074147;28;20214;-78
2022/03/15 08:07:48;;;;;;;26.45;17.65;;;17.90;99.90;;;;;;5069936;28;20244;-79
2022/03/15 08:10:14;;;;;;;27.30;18.50;;;17.50;99.90;;;;;;5071527;28;20584;-74
2022/03/15 08:12:40;;;;;;;28.83;17.60;;;17.70;99.90;;;;;;5070477;28;20210;-74
2022/03/15 08:15:07;;;;;;;29.05;18.17;;;17.40;99.90;;;;;;5072300;28;20632;-74
2022/03/15 08:17:37;;;;;;;26.50;18.27;;;17.20;99.90;;;;;;5071610;28;20211;-75
2022/03/15 08:20:04;;;;;;;29.02;19.17;;;17.30;99.90;;;;;;5072578;28;20285;-76
2022/03/15 08:22:30;;;;;;;24.95;18.40;;;17.50;99.90;;;;;;5071799;28;20218;-76
2022/03/15 08:24:56;;;;;;;27.55;19.05;;;18.00;99.90;;;;;;5072986;28;20207;-76
2022/03/15 08:27:22;;;;;;;33.22;19.75;;;18.30;99.90;;;;;;5070942;28;20178;-76
2022/03/15 08:29:48;;;;;;;28.70;20.05;;;18.40;99.90;;;;;;5071989;28;20179;-76
2022/03/15 08:32:13;;;;;;;28.92;20.63;;;18.60;99.90;;;;;;5073552;28;20210;-77
2022/03/15 08:34:39;;;;;;;30.42;20.92;;;19.10;99.90;;;;;;5074038;28;20579;-78
2022/03/15 08:37:06;;;;;;;28.92;20.45;;;19.00;99.90;;;;;;5074491;28;20219;-76
2022/03/15 08:39:32;;;;;;;30.42;19.83;;;19.10;99.90;;;;;;5070635;28;20239;-75
2022/03/15 08:41:57;;;;;;;29.92;21.17;;;19.00;99.90;;;;;;5073407;28;20190;-76
2022/03/15 08:44:23;;;;;;;33.53;21.60;;;19.30;99.90;;;;;;5074059;28;20230;-77
2022/03/15 08:46:50;;;;;;;29.05;20.48;;;19.40;99.90;;;;;;5073471;28;20211;-76
2022/03/15 08:49:17;;;;;;;31.17;20.40;;;19.30;99.90;;;;;;5066788;28;20222;-78
2022/03/15 08:51:44;;;;;;;29.23;22.17;;;19.30;99.90;;;;;;5078000;28;20306;-75
2022/03/15 08:54:09;;;;;;;30.13;20.52;;;19.40;99.90;;;;;;5078233;28;20570;-75
2022/03/15 08:56:36;;;;;;;31.83;21.63;;;18.90;99.90;;;;;;5077623;28;20223;-74
2022/03/15 08:59:02;;;;;;;33.50;22.48;;;18.90;99.90;;;;;;5076308;28;20207;-76
2022/03/15 09:01:28;;;;;;;33.67;22.23;;;18.90;99.90;;;;;;5072092;28;20226;-74
2022/03/15 09:03:53;;;;;;;34.85;22.88;;;18.90;99.90;;;;;;5071776;28;20736;-75
2022/03/15 09:06:19;;;;;;;34.65;22.33;;;18.20;99.90;;;;;;5071858;28;20256;-75
2022/03/15 09:08:46;;;;;;;32.95;21.73;;;18.10;99.90;;;;;;5071520;28;20179;-73
2022/03/15 09:11:12;;;;;;;31.75;20.88;;;17.70;99.90;;;;;;5071996;28;20230;-79
2022/03/15 09:13:37;;;;;;;27.63;20.40;;;17.60;99.90;;;;;;5064869;28;20223;-80
2022/03/15 09:16:05;;;;;;;29.85;21.02;;;17.50;99.90;;;;;;5069974;28;20579;-75
2022/03/15 09:18:31;;;;;;;28.35;20.02;;;17.00;99.90;;;;;;5070183;28;20263;-76
2022/03/15 09:20:57;;;;;;;29.00;19.02;;;17.40;99.90;;;;;;5071460;28;20263;-74
2022/03/15 09:23:22;;;;;;;29.05;18.90;;;17.40;99.90;;;;;;5070453;28;20203;-75
2022/03/15 09:25:49;;;;;;;30.90;19.73;;;17.90;99.90;;;;;;5069379;28;20215;-76
2022/03/15 09:28:16;;;;;;;31.00;20.65;;;17.80;99.90;;;;;;5068743;28;20313;-76
2022/03/15 09:30:45;;;;;;;27.17;16.80;;;17.80;99.90;;;;;;5068434;28;20217;-77
2022/03/15 09:33:11;;;;;;;28.73;17.20;;;17.90;99.90;;;;;;5070757;28;20667;-73
2022/03/15 09:35:40;;;;;;;26.58;18.60;;;17.70;99.90;;;;;;5070589;28;20183;-76
2022/03/15 09:38:06;;;;;;;27.55;16.85;;;17.80;99.90;;;;;;5068716;28;20210;-75
2022/03/15 09:40:33;;;;;;;25.88;18.60;;;17.50;99.90;;;;;;5070372;28;20218;-76
2022/03/15 09:43:00;;;;;;;28.33;17.85;;;17.70;99.90;;;;;;5069371;28;20695;-76
2022/03/15 09:45:33;;;;;;;26.30;17.38;;;17.80;99.90;;;;;;5069257;28;20183;-74
2022/03/15 09:48:04;;;;;;;27.38;18.40;;;17.00;99.90;;;;;;5071229;28;20210;-77
2022/03/15 09:50:30;;;;;;;26.88;18.30;;;17.10;99.90;;;;;;5069775;28;20775;-73
2022/03/15 09:52:57;;;;;;;29.20;18.73;;;17.00;99.90;;;;;;5069625;28;20214;-73
2022/03/15 09:55:25;;;;;;;26.42;18.08;;;17.10;99.90;;;;;;5069359;28;20211;-72
2022/03/15 09:57:52;;;;;;;26.25;17.13;;;16.60;99.90;;;;;;5071002;28;20203;-73
2022/03/15 10:00:18;;;;;;;27.88;19.27;;;16.50;99.90;;;;;;5069089;28;20205;-74
2022/03/15 10:02:45;;;;;;;27.20;18.15;;;16.60;99.90;;;;;;5071405;28;20203;-75
2022/03/15 10:05:13;;;;;;;27.92;18.35;;;16.60;99.90;;;;;;5071069;28;20718;-75
2022/03/15 10:07:38;;;;;;;28.77;17.50;;;16.80;99.90;;;;;;5070686;28;20566;-73
2022/03/15 10:10:06;;;;;;;26.10;16.50;;;16.40;99.90;;;;;;5070368;28;20234;-75
2022/03/15 10:12:32;;;;;;;29.25;17.42;;;16.00;99.90;;;;;;5070739;28;20237;-75
2022/03/15 10:15:08;;;;;;;29.70;17.23;;;15.80;99.90;;;;;;5071843;28;20687;-75
2022/03/15 10:17:53;;;;;;;27.38;16.52;;;15.80;99.90;;;;;;5069535;28;20215;-76
2022/03/15 10:20:20;;;;;;;27.38;16.83;;;16.00;99.90;;;;;;5069231;28;20248;-76
2022/03/15 10:22:59;;;;;;;27.55;16.60;;;16.20;99.90;;;;;;5071155;28;20285;-77
2022/03/15 10:25:27;;;;;;;35.22;19.08;;;16.30;99.90;;;;;;5063649;28;20230;-77
2022/03/15 10:28:02;;;;;;;30.02;18.77;;;16.30;99.90;;;;;;5053769;28;20211;-78
2022/03/15 10:30:30;;;;;;;24.38;15.75;;;16.50;99.90;;;;;;5069084;28;20187;-75
2022/03/15 10:32:57;;;;;;;23.83;15.18;;;17.10;99.90;;;;;;5071556;28;20271;-74
2022/03/15 10:35:31;;;;;;;25.95;15.45;;;17.40;99.90;;;;;;5070859;28;20218;-74
2022/03/15 10:37:58;;;;;;;26.95;16.17;;;17.40;99.90;;;;;;5069537;28;20689;-73
2022/03/15 10:40:37;;;;;;;26.38;16.25;;;16.80;99.90;;;;;;5070149;28;20219;-75
2022/03/15 10:43:11;;;;;;;24.77;15.90;;;16.70;99.90;;;;;;5070047;28;20211;-76
2022/03/15 10:45:50;;;;;;;30.23;17.30;;;15.40;99.90;;;;;;5054858;28;20685;-75
2022/03/15 10:48:26;;;;;;;30.70;19.02;;;15.60;99.90;;;;;;5070230;28;20185;-78
2022/03/15 10:50:59;;;;;;;26.30;16.58;;;16.00;99.90;;;;;;5073905;28;20265;-76
2022/03/15 10:53:30;;;;;;;31.40;16.70;;;15.60;99.90;;;;;;5070705;28;20228;-77
2022/03/15 10:56:12;;;;;;;25.00;14.85;;;16.30;99.90;;;;;;5069430;28;20211;-77
2022/03/15 10:58:48;;;;;;;25.42;14.52;;;16.50;99.90;;;;;;5063749;28;20243;-79
2022/03/15 11:01:16;;;;;;;25.25;14.02;;;16.80;99.90;;;;;;5071216;28;20218;-76
2022/03/15 11:03:56;;;;;;;21.45;12.68;;;16.70;99.90;;;;;;5067451;28;20300;-73
2022/03/15 11:06:32;;;;;;;24.92;13.88;;;16.40;99.90;;;;;;5067829;28;20179;-80
2022/03/15 11:08:59;;;;;;;26.45;13.30;;;16.10;99.90;;;;;;5070281;28;20186;-78
2022/03/15 11:11:26;;;;;;;28.00;15.23;;;16.20;99.90;;;;;;5069907;28;20210;-74
2022/03/15 11:14:02;;;;;;;24.58;13.45;;;15.90;99.90;;;;;;5069190;28;20239;-76
2022/03/15 11:16:31;;;;;;;24.17;13.00;;;16.00;99.90;;;;;;5071602;28;20203;-76
2022/03/15 11:18:59;;;;;;;20.20;12.18;;;16.00;99.90;;;;;;5069000;28;20321;-76
2022/03/15 11:21:25;;;;;;;19.48;11.07;;;16.10;99.90;;;;;;5071593;28;20218;-74
2022/03/15 11:23:54;;;;;;;20.35;11.30;;;16.20;99.90;;;;;;5072635;28;20204;-74
2022/03/15 11:26:22;;;;;;;19.67;10.98;;;16.00;99.90;;;;;;5073756;28;20215;-76
2022/03/15 11:28:49;;;;;;;20.42;11.27;;;16.10;99.90;;;;;;5071286;28;20223;-75
2022/03/15 11:31:15;;;;;;;23.73;12.52;;;16.20;99.90;;;;;;5068337;28;20203;-75
2022/03/15 11:33:47;;;;;;;18.00;10.18;;;15.90;99.90;;;;;;5061126;28;20215;-74
2022/03/15 11:36:13;;;;;;;16.75;9.52;;;15.90;99.90;;;;;;5069844;28;20587;-76
2022/03/15 11:38:41;;;;;;;16.45;9.88;;;16.00;99.90;;;;;;5061570;28;20616;-77
2022/03/15 11:41:09;;;;;;;17.45;10.05;;;16.20;99.90;;;;;;5070994;28;20211;-75
2022/03/15 11:43:50;;;;;;;25.02;14.40;;;16.20;99.90;;;;;;5070376;28;20211;-73
2022/03/15 11:46:29;;;;;;;23.23;15.40;;;16.20;99.90;;;;;;5064893;28;20233;-77
2022/03/15 11:49:08;;;;;;;26.38;16.52;;;16.20;99.90;;;;;;5072499;28;20246;-74
2022/03/15 11:51:44;;;;;;;21.75;14.23;;;16.20;99.90;;;;;;5072809;28;20207;-73
2022/03/15 11:54:30;;;;;;;26.67;14.98;;;16.20;99.90;;;;;;5072537;28;20195;-76
2022/03/15 11:57:21;;;;;;;23.63;14.40;;;16.00;99.90;;;;;;5074312;28;20203;-75
2022/03/15 11:59:49;;;;;;;22.58;14.13;;;16.10;99.90;;;;;;5058144;28;20672;-74
2022/03/15 12:02:28;;;;;;;21.92;13.95;;;15.90;99.90;;;;;;5073835;28;20203;-76
2022/03/15 12:04:54;;;;;;;22.88;13.57;;;16.00;99.90;;;;;;5073911;28;20221;-75
2022/03/15 12:07:46;;;;;;;24.95;14.50;;;16.10;99.90;;;;;;5072798;28;20277;-72
2022/03/15 12:10:27;;;;;;;26.00;15.38;;;15.90;99.90;;;;;;5069341;28;20282;-77
2022/03/15 12:13:02;;;;;;;22.63;13.43;;;16.20;99.90;;;;;;5057387;28;20218;-76
2022/03/15 12:15:45;;;;;;;22.33;13.52;;;16.40;99.90;;;;;;5063228;28;20282;-80
2022/03/15 12:21:02;;;;;;;23.23;13.90;;;16.40;99.90;;;;;;5072811;28;20202;-78
2022/03/15 12:23:37;;;;;;;23.95;14.38;;;16.40;99.90;;;;;;5070353;28;20218;-78
2022/03/15 12:26:03;;;;;;;26.25;14.65;;;16.40;99.90;;;;;;5068876;28;20207;-78
2022/03/15 12:28:31;;;;;;;24.38;14.68;;;16.30;99.90;;;;;;5070229;28;20237;-78
2022/03/15 12:31:08;;;;;;;25.13;13.80;;;16.30;99.90;;;;;;5071781;28;20207;-78
2022/03/15 12:33:35;;;;;;;22.35;13.88;;;16.30;99.90;;;;;;5073173;28;20215;-80
2022/03/15 12:36:07;;;;;;;23.45;13.88;;;16.10;99.90;;;;;;5073456;28;20175;-78
2022/03/15 12:38:41;;;;;;;22.95;13.98;;;16.10;99.90;;;;;;5071780;28;20268;-78